createdAt,value
2018-09-24T00:02:26.583Z,13.00
2018-09-24T00:04:59.979Z,12.90
2018-09-24T00:07:33.404Z,12.80
2018-09-24T00:10:06.863Z,12.70
2018-09-24T00:12:40.323Z,12.80
2018-09-24T00:15:13.720Z,12.80
2018-09-24T00:17:47.147Z,12.70
2018-09-24T00:20:20.543Z,12.50
2018-09-24T00:22:53.958Z,12.60
2018-09-24T00:25:27.367Z,12.60
2018-09-24T00:28:00.795Z,12.60
2018-09-24T00:30:34.206Z,12.60
2018-09-24T00:33:07.603Z,12.40
2018-09-24T00:35:40.989Z,12.50
2018-09-24T00:38:14.384Z,12.50
2018-09-24T00:40:47.775Z,12.40
2018-09-24T00:43:21.191Z,12.40
2018-09-24T00:45:54.583Z,12.60
2018-09-24T00:48:28.012Z,12.60
2018-09-24T00:51:01.388Z,12.60
2018-09-24T00:53:34.788Z,12.80
2018-09-24T00:56:08.159Z,12.80
2018-09-24T00:58:41.551Z,12.70
2018-09-24T01:01:14.944Z,12.60
2018-09-24T01:03:48.336Z,12.70
2018-09-24T01:06:21.720Z,12.60
2018-09-24T01:08:55.152Z,12.60
2018-09-24T01:11:28.523Z,12.60
2018-09-24T01:14:01.928Z,12.50
2018-09-24T01:16:35.407Z,12.50
2018-09-24T01:19:08.929Z,12.60
2018-09-24T01:21:42.299Z,12.50
2018-09-24T01:24:15.708Z,12.50
2018-09-24T01:26:49.090Z,12.60
2018-09-24T01:29:22.524Z,12.70
2018-09-24T01:31:55.958Z,12.80
2018-09-24T01:34:29.388Z,12.80
2018-09-24T01:37:02.773Z,12.80
2018-09-24T01:39:36.188Z,12.80
2018-09-24T01:42:09.561Z,12.80
2018-09-24T01:44:42.968Z,12.80
2018-09-24T01:47:16.352Z,12.90
2018-09-24T01:49:49.743Z,12.90
2018-09-24T01:52:23.149Z,13.00
2018-09-24T01:54:56.572Z,13.00
2018-09-24T01:57:29.944Z,13.00
2018-09-24T02:00:03.393Z,13.10
2018-09-24T02:02:36.771Z,12.90
2018-09-24T02:05:14.493Z,13.00
2018-09-24T02:07:47.877Z,13.00
2018-09-24T02:10:24.672Z,13.10
2018-09-24T02:12:59.068Z,13.00
2018-09-24T02:15:33.578Z,13.00
2018-09-24T02:18:06.974Z,13.10
2018-09-24T02:20:45.699Z,13.10
2018-09-24T02:23:19.092Z,13.10
2018-09-24T02:25:52.497Z,13.00
2018-09-24T02:28:29.136Z,13.00
2018-09-24T02:31:02.565Z,12.90
2018-09-24T02:33:35.981Z,12.70
2018-09-24T02:36:09.385Z,12.80
2018-09-24T02:38:42.765Z,12.80
2018-09-24T02:41:16.201Z,12.80
2018-09-24T02:43:49.684Z,12.70
2018-09-24T02:46:23.100Z,12.70
2018-09-24T02:49:01.424Z,12.60
2018-09-24T02:51:34.845Z,12.60
2018-09-24T02:54:08.231Z,12.70
2018-09-24T02:56:48.718Z,12.60
2018-09-24T02:59:22.121Z,12.60
2018-09-24T03:01:55.547Z,12.60
2018-09-24T03:04:28.968Z,12.70
2018-09-24T03:07:02.403Z,12.70
2018-09-24T03:09:35.815Z,12.80
2018-09-24T03:12:09.271Z,12.90
2018-09-24T03:14:42.669Z,12.90
2018-09-24T03:17:17.843Z,12.80
2018-09-24T03:19:51.262Z,12.90
2018-09-24T03:22:25.760Z,12.90
2018-09-24T03:24:59.177Z,13.00
2018-09-24T03:27:32.600Z,13.00
2018-09-24T03:30:06.095Z,13.00
2018-09-24T03:32:40.332Z,12.90
2018-09-24T03:35:13.804Z,13.00
2018-09-24T03:37:47.230Z,13.00
2018-09-24T03:40:20.625Z,13.10
2018-09-24T03:42:54.259Z,13.20
2018-09-24T03:45:28.466Z,13.20
2018-09-24T03:48:01.856Z,13.20
2018-09-24T03:50:35.235Z,13.10
2018-09-24T03:53:09.035Z,13.10
2018-09-24T03:55:42.451Z,13.10
2018-09-24T03:58:15.871Z,13.20
2018-09-24T04:00:49.671Z,13.20
2018-09-24T04:03:23.060Z,13.00
2018-09-24T04:08:49.109Z,12.80
2018-09-24T04:11:27.882Z,12.60
2018-09-24T04:14:06.569Z,12.50
2018-09-24T04:16:45.128Z,12.40
2018-09-24T04:19:23.934Z,12.40
2018-09-24T04:22:02.713Z,12.60
2018-09-24T04:24:41.474Z,12.60
2018-09-24T04:27:20.264Z,12.70
2018-09-24T04:29:58.892Z,12.60
2018-09-24T04:32:37.491Z,12.40
2018-09-24T04:35:16.147Z,12.40
2018-09-24T04:37:54.764Z,12.40
2018-09-24T04:40:33.540Z,12.50
2018-09-24T04:43:12.351Z,12.60
2018-09-24T04:45:51.672Z,12.60
2018-09-24T04:48:30.399Z,12.50
2018-09-24T04:51:09.113Z,12.40
2018-09-24T04:53:47.961Z,12.10
2018-09-24T04:56:26.556Z,12.30
2018-09-24T04:59:05.221Z,12.30
2018-09-24T05:01:43.787Z,12.40
2018-09-24T05:04:22.657Z,12.40
2018-09-24T05:07:02.459Z,12.50
2018-09-24T05:09:41.386Z,12.50
2018-09-24T05:12:20.034Z,12.30
2018-09-24T05:14:58.928Z,12.40
2018-09-24T05:17:37.636Z,12.20
2018-09-24T05:20:16.485Z,12.20
2018-09-24T05:22:55.113Z,12.20
2018-09-24T05:25:33.732Z,12.10
2018-09-24T05:28:12.533Z,12.10
2018-09-24T05:30:51.205Z,12.00
2018-09-24T05:33:30.016Z,11.90
2018-09-24T05:36:08.637Z,12.00
2018-09-24T05:38:47.504Z,11.90
2018-09-24T05:41:26.233Z,11.90
2018-09-24T05:44:04.895Z,11.90
2018-09-24T05:46:43.632Z,11.90
2018-09-24T05:49:22.496Z,11.90
2018-09-24T05:52:01.224Z,11.80
2018-09-24T05:54:40.126Z,11.80
2018-09-24T05:57:18.863Z,11.90
2018-09-24T05:59:57.572Z,11.80
2018-09-24T06:02:36.351Z,11.80
2018-09-24T06:05:15.265Z,11.70
2018-09-24T06:07:54.153Z,11.80
2018-09-24T06:10:32.748Z,11.70
2018-09-24T06:13:11.500Z,11.70
2018-09-24T06:15:50.268Z,11.70
2018-09-24T06:18:28.919Z,11.60
2018-09-24T06:21:07.515Z,11.60
2018-09-24T06:23:46.128Z,11.70
2018-09-24T06:26:24.792Z,11.80
2018-09-24T06:29:03.350Z,11.90
2018-09-24T06:31:42.127Z,11.80
2018-09-24T06:34:20.918Z,11.90
2018-09-24T06:36:59.582Z,11.80
2018-09-24T06:39:38.467Z,11.80
2018-09-24T06:42:17.217Z,11.80
2018-09-24T06:44:55.968Z,11.90
2018-09-24T06:47:34.720Z,11.90
2018-09-24T06:50:13.373Z,11.90
2018-09-24T06:52:52.068Z,12.00
2018-09-24T06:55:30.845Z,12.00
2018-09-24T06:58:09.648Z,12.10
2018-09-24T07:00:48.335Z,12.10
2018-09-24T07:03:27.071Z,12.20
2018-09-24T07:06:05.841Z,12.20
2018-09-24T07:08:44.491Z,12.10
2018-09-24T07:11:23.582Z,12.20
2018-09-24T07:14:02.167Z,12.10
2018-09-24T07:16:41.012Z,12.20
2018-09-24T07:19:19.591Z,12.30
2018-09-24T07:21:58.283Z,12.40
2018-09-24T07:24:37.048Z,12.40
2018-09-24T07:27:15.762Z,12.50
2018-09-24T07:29:54.316Z,12.60
2018-09-24T07:32:33.039Z,12.60
2018-09-24T07:35:11.850Z,12.70
2018-09-24T07:37:50.535Z,12.70
2018-09-24T07:40:29.211Z,12.70
2018-09-24T07:43:08.097Z,12.40
2018-09-24T07:45:46.671Z,12.30
2018-09-24T07:48:25.508Z,12.30
2018-09-24T07:51:04.336Z,12.30
2018-09-24T07:53:43.035Z,12.30
2018-09-24T07:56:21.737Z,12.50
2018-09-24T07:59:00.476Z,12.40
2018-09-24T08:01:39.085Z,12.50
2018-09-24T08:04:17.891Z,12.60
2018-09-24T08:06:56.608Z,12.70
2018-09-24T08:09:35.441Z,12.80
2018-09-24T08:12:14.120Z,12.70
2018-09-24T08:14:52.840Z,12.90
2018-09-24T08:17:31.613Z,12.80
2018-09-24T08:20:10.460Z,12.80
2018-09-24T08:22:49.355Z,12.80
2018-09-24T08:25:27.987Z,12.70
2018-09-24T08:28:06.911Z,12.70
2018-09-24T08:30:45.694Z,12.70
2018-09-24T08:33:24.309Z,12.70
2018-09-24T08:36:03.155Z,12.80
2018-09-24T08:38:41.971Z,12.60
2018-09-24T08:41:20.788Z,12.90
2018-09-24T08:43:59.665Z,12.90
2018-09-24T08:46:38.536Z,13.00
2018-09-24T08:49:17.260Z,13.10
2018-09-24T08:51:55.932Z,13.30
2018-09-24T08:54:35.756Z,13.00
2018-09-24T08:57:14.626Z,12.90
2018-09-24T08:59:53.204Z,13.10
2018-09-24T09:02:31.883Z,13.20
2018-09-24T09:05:10.753Z,13.60
2018-09-24T09:07:49.536Z,13.70
2018-09-24T09:10:28.384Z,13.40
2018-09-24T09:13:07.119Z,13.60
2018-09-24T09:15:45.816Z,13.60
2018-09-24T09:18:24.630Z,13.40
2018-09-24T09:21:03.302Z,13.30
2018-09-24T09:23:42.169Z,13.40
2018-09-24T09:26:21.037Z,13.50
2018-09-24T09:28:59.847Z,13.90
2018-09-24T09:31:38.655Z,14.00
2018-09-24T09:34:17.404Z,14.20
2018-09-24T09:36:56.230Z,14.20
2018-09-24T09:39:34.952Z,14.00
2018-09-24T09:42:13.712Z,13.90
2018-09-24T09:44:52.516Z,14.10
2018-09-24T09:47:31.289Z,14.10
2018-09-24T09:50:10.129Z,14.20
2018-09-24T09:52:48.931Z,14.30
2018-09-24T09:55:27.553Z,14.30
2018-09-24T09:58:06.252Z,14.20
2018-09-24T10:00:45.015Z,14.40
2018-09-24T10:03:23.870Z,14.50
2018-09-24T10:06:02.533Z,14.60
2018-09-24T10:08:43.399Z,14.50
2018-09-24T10:11:22.026Z,14.70
2018-09-24T10:14:00.728Z,14.90
2018-09-24T10:16:39.327Z,15.00
2018-09-24T10:19:18.117Z,15.20
2018-09-24T10:21:56.879Z,15.00
2018-09-24T10:24:35.491Z,14.90
2018-09-24T10:27:14.300Z,14.60
2018-09-24T10:29:53.200Z,14.30
2018-09-24T10:32:31.815Z,14.50
2018-09-24T10:35:10.676Z,14.70
2018-09-24T10:37:49.404Z,14.90
2018-09-24T10:40:28.165Z,14.90
2018-09-24T10:43:06.743Z,15.00
2018-09-24T10:45:45.548Z,15.20
2018-09-24T10:48:24.382Z,15.30
2018-09-24T10:51:03.073Z,15.30
2018-09-24T10:53:41.774Z,15.00
2018-09-24T10:56:20.494Z,15.10
2018-09-24T10:58:59.339Z,15.10
2018-09-24T11:01:38.150Z,15.10
2018-09-24T11:04:17.048Z,15.30
2018-09-24T11:06:55.919Z,15.40
2018-09-24T11:09:34.810Z,15.50
2018-09-24T11:12:13.596Z,15.50
2018-09-24T11:14:52.184Z,15.40
2018-09-24T11:17:31.076Z,15.40
2018-09-24T11:20:09.716Z,15.30
2018-09-24T11:22:48.380Z,15.40
2018-09-24T11:25:27.069Z,15.50
2018-09-24T11:28:05.877Z,15.40
2018-09-24T11:30:44.592Z,15.60
2018-09-24T11:33:23.292Z,15.40
2018-09-24T11:36:02.210Z,15.60
2018-09-24T11:38:40.869Z,15.60
2018-09-24T11:41:19.612Z,15.60
2018-09-24T11:43:58.191Z,15.50
2018-09-24T11:46:36.978Z,15.30
2018-09-24T11:49:15.487Z,15.50
2018-09-24T11:51:56.487Z,15.60
2018-09-24T11:54:35.364Z,15.50
2018-09-24T11:57:14.246Z,15.30
2018-09-24T11:59:52.963Z,15.40
2018-09-24T12:02:31.745Z,15.50
2018-09-24T12:05:10.684Z,15.70
2018-09-24T12:07:49.540Z,15.80
2018-09-24T12:10:28.328Z,15.80
2018-09-24T12:13:08.247Z,15.90
2018-09-24T12:15:46.913Z,15.90
2018-09-24T12:18:29.409Z,15.60
2018-09-24T12:21:08.047Z,15.50
2018-09-24T12:23:46.772Z,15.40
2018-09-24T12:26:25.610Z,15.50
2018-09-24T12:29:04.364Z,15.50
2018-09-24T12:31:43.279Z,15.70
2018-09-24T12:34:21.984Z,15.70
2018-09-24T12:37:00.728Z,15.90
2018-09-24T12:39:39.559Z,15.60
2018-09-24T12:42:18.416Z,15.80
2018-09-24T12:44:57.116Z,15.60
2018-09-24T12:47:35.827Z,15.60
2018-09-24T12:50:14.696Z,15.80
2018-09-24T12:52:53.463Z,15.90
2018-09-24T12:55:33.213Z,16.00
2018-09-24T12:58:12.441Z,15.90
2018-09-24T13:00:51.208Z,15.90
2018-09-24T13:03:30.093Z,15.90
2018-09-24T13:06:09.004Z,16.00
2018-09-24T13:08:47.736Z,16.20
2018-09-24T13:11:26.426Z,16.10
2018-09-24T13:14:07.260Z,16.30
2018-09-24T13:16:46.003Z,16.20
2018-09-24T13:19:24.749Z,16.10
2018-09-24T13:22:03.459Z,16.10
2018-09-24T13:24:42.309Z,16.10
2018-09-24T13:27:21.034Z,16.20
2018-09-24T13:29:59.733Z,16.30
2018-09-24T16:45:27.348Z,16.90
2018-09-24T16:48:06.123Z,16.90
2018-09-24T16:50:44.865Z,16.90
2018-09-24T16:53:23.820Z,16.80
2018-09-24T16:56:03.801Z,16.90
2018-09-24T16:58:42.793Z,16.80
2018-09-24T17:01:21.704Z,16.80
2018-09-24T17:04:00.392Z,16.70
2018-09-24T17:06:39.283Z,16.70
2018-09-24T17:09:18.019Z,16.70
2018-09-24T17:11:56.817Z,16.60
2018-09-24T17:14:35.451Z,16.60
2018-09-24T17:17:14.178Z,16.60
2018-09-24T17:19:55.013Z,16.50
2018-09-24T17:22:33.872Z,16.40
2018-09-24T17:25:12.676Z,16.30
2018-09-24T17:27:51.500Z,16.30
2018-09-24T17:30:30.088Z,16.20
2018-09-24T17:33:08.831Z,16.20
2018-09-24T17:35:47.647Z,16.10
2018-09-24T17:38:26.553Z,16.00
2018-09-24T17:41:05.399Z,15.90
2018-09-24T17:43:44.132Z,15.90
2018-09-24T17:46:22.897Z,15.80
2018-09-24T17:49:01.729Z,15.80
2018-09-24T17:51:40.609Z,15.70
2018-09-24T17:54:19.223Z,15.70
2018-09-24T17:56:57.959Z,15.60
2018-09-24T17:59:36.770Z,15.40
2018-09-24T18:02:15.509Z,15.40
2018-09-24T18:04:54.297Z,15.30
2018-09-24T18:07:33.063Z,15.30
2018-09-24T18:10:11.859Z,15.30
2018-09-24T18:12:50.685Z,15.20
2018-09-24T18:15:29.506Z,15.20
2018-09-24T18:18:08.332Z,15.20
2018-09-24T18:20:46.985Z,15.20
2018-09-24T18:23:25.506Z,15.10
2018-09-24T18:26:04.259Z,15.10
2018-09-24T18:28:42.994Z,15.00
2018-09-24T18:31:21.719Z,15.00
2018-09-24T18:34:00.401Z,14.90
2018-09-24T18:36:39.024Z,14.90
2018-09-24T18:39:17.827Z,14.70
2018-09-24T18:41:56.565Z,14.70
2018-09-24T18:44:35.345Z,14.70
2018-09-24T18:47:13.979Z,14.70
2018-09-24T18:49:52.973Z,14.70
2018-09-24T18:52:31.812Z,14.70
2018-09-24T18:55:10.513Z,14.60
2018-09-24T18:57:49.358Z,14.60
2018-09-24T19:00:28.008Z,14.60
2018-09-24T19:03:06.944Z,14.50
2018-09-24T19:05:45.449Z,14.50
2018-09-24T19:08:24.223Z,14.40
2018-09-24T19:11:02.807Z,14.30
2018-09-24T19:13:41.596Z,14.40
2018-09-24T19:16:20.250Z,14.30
2018-09-24T19:18:59.069Z,13.90
2018-09-24T19:21:37.910Z,13.50
2018-09-24T19:24:16.659Z,13.60
2018-09-24T19:26:55.394Z,13.60
2018-09-24T19:29:34.108Z,13.70
2018-09-24T19:32:12.907Z,13.80
2018-09-24T19:34:51.492Z,13.80
2018-09-24T19:37:30.044Z,13.90
2018-09-24T19:40:08.814Z,13.90
2018-09-24T19:42:47.611Z,13.90
2018-09-24T19:45:26.443Z,13.90
2018-09-24T19:48:05.230Z,13.90
2018-09-24T19:50:43.907Z,13.70
2018-09-24T19:53:22.811Z,13.80
2018-09-24T19:56:01.622Z,13.70
2018-09-24T19:58:40.367Z,14.60
2018-09-24T20:01:19.155Z,16.50
2018-09-24T20:03:58.037Z,17.00
2018-09-24T20:06:37.036Z,16.30
2018-09-24T20:09:15.704Z,15.70
2018-09-24T20:11:54.698Z,15.00
2018-09-24T20:14:33.579Z,14.60
2018-09-24T20:17:12.507Z,14.10
2018-09-24T20:19:51.236Z,13.80
2018-09-24T20:22:30.015Z,13.80
2018-09-24T20:25:08.793Z,13.80
2018-09-24T20:27:47.488Z,13.80
2018-09-24T20:30:26.120Z,13.70
2018-09-24T20:33:04.816Z,13.60
2018-09-24T20:35:43.654Z,13.30
2018-09-24T20:38:22.492Z,13.30
2018-09-24T20:41:02.287Z,13.40
2018-09-24T20:43:41.099Z,13.50
2018-09-24T20:46:19.817Z,13.60
2018-09-24T20:48:58.587Z,13.60
2018-09-24T20:51:37.276Z,13.60
2018-09-24T20:54:15.951Z,13.50
2018-09-24T20:56:54.761Z,13.40
2018-09-24T20:59:33.549Z,13.50
2018-09-24T21:02:12.363Z,13.60
2018-09-24T21:04:51.244Z,13.40
2018-09-24T21:07:31.035Z,13.40
2018-09-24T21:10:09.771Z,13.20
2018-09-24T21:12:48.471Z,13.10
2018-09-24T21:15:27.300Z,13.30
2018-09-24T21:18:06.000Z,13.30
2018-09-24T21:20:44.856Z,13.30
2018-09-24T21:23:23.745Z,13.30
2018-09-24T21:26:02.451Z,13.30
2018-09-24T21:28:41.304Z,13.30
2018-09-24T21:31:20.055Z,13.30
2018-09-24T21:33:58.729Z,13.30
2018-09-24T21:36:37.464Z,13.40
2018-09-24T21:39:16.196Z,13.30
2018-09-24T21:41:54.848Z,13.20
2018-09-24T21:44:33.594Z,12.90
2018-09-24T21:47:12.219Z,13.10
2018-09-24T21:49:50.923Z,13.00
2018-09-24T21:52:29.668Z,12.90
2018-09-24T21:55:08.404Z,13.00
2018-09-24T21:57:47.119Z,13.00
2018-09-24T22:00:25.791Z,13.00
2018-09-24T22:03:04.587Z,12.80
2018-09-24T22:05:43.245Z,12.80
2018-09-24T22:08:21.913Z,12.80
2018-09-24T22:11:00.532Z,12.70
2018-09-24T22:13:39.355Z,12.70
2018-09-24T22:16:18.079Z,12.70
2018-09-24T22:18:56.792Z,12.80
2018-09-24T22:21:35.512Z,12.90
2018-09-24T22:24:14.275Z,12.90
2018-09-24T22:26:53.146Z,12.90
2018-09-24T22:29:31.879Z,12.80
2018-09-24T22:32:10.834Z,12.70
2018-09-24T22:34:49.477Z,12.50
2018-09-24T22:37:28.123Z,12.60
2018-09-24T22:40:06.790Z,12.60
2018-09-24T22:42:45.509Z,12.60
2018-09-24T22:45:24.456Z,12.50
2018-09-24T22:48:03.239Z,12.50
2018-09-24T22:50:41.913Z,12.40
2018-09-24T22:53:20.669Z,12.30
2018-09-24T22:55:59.320Z,12.30
2018-09-24T22:58:38.086Z,12.20
2018-09-24T23:01:16.747Z,12.00
2018-09-24T23:03:55.360Z,12.00
2018-09-24T23:06:33.999Z,12.00
2018-09-24T23:09:13.783Z,12.00
2018-09-24T23:11:52.464Z,12.10
2018-09-24T23:14:31.184Z,12.10
2018-09-24T23:17:09.831Z,12.10
2018-09-24T23:19:48.498Z,12.00
2018-09-24T23:22:27.229Z,12.00
2018-09-24T23:25:06.115Z,12.00
2018-09-24T23:27:44.785Z,11.90
2018-09-24T23:30:23.419Z,12.00
2018-09-24T23:33:02.260Z,11.80
2018-09-24T23:35:40.947Z,11.80
2018-09-24T23:38:19.547Z,11.70
2018-09-24T23:40:58.261Z,11.80
2018-09-24T23:43:37.048Z,11.70
2018-09-24T23:46:15.691Z,11.70
2018-09-24T23:48:54.350Z,11.70
2018-09-24T23:51:33.055Z,11.70
2018-09-24T23:54:11.932Z,11.70
2018-09-24T23:56:50.607Z,11.80
2018-09-24T23:59:29.389Z,11.70
